createdAt,value
2023-03-06T00:00:28.462Z,78.58
2023-03-06T00:02:55.820Z,78.59
2023-03-06T00:05:23.003Z,78.74
2023-03-06T00:07:49.959Z,78.85
2023-03-06T00:10:20.107Z,78.79
2023-03-06T00:12:47.279Z,78.86
2023-03-06T00:15:14.465Z,78.88
2023-03-06T00:17:41.478Z,78.92
2023-03-06T00:20:10.342Z,78.88
2023-03-06T00:22:37.249Z,78.92
2023-03-06T00:25:05.043Z,78.73
2023-03-06T00:27:32.838Z,78.77
2023-03-06T00:30:01.672Z,78.75
2023-03-06T00:32:29.139Z,78.81
2023-03-06T00:34:56.598Z,79.09
2023-03-06T00:37:24.863Z,79.28
2023-03-06T00:39:52.304Z,79.30
2023-03-06T00:42:19.923Z,79.22
2023-03-06T00:44:47.225Z,79.00
2023-03-06T00:47:17.268Z,79.16
2023-03-06T00:49:45.234Z,78.85
2023-03-06T00:52:13.105Z,78.92
2023-03-06T00:54:40.721Z,79.20
2023-03-06T00:57:08.010Z,79.43
2023-03-06T00:59:35.078Z,79.21
2023-03-06T01:02:02.931Z,79.24
2023-03-06T01:04:29.929Z,79.26
2023-03-06T01:06:56.786Z,79.45
2023-03-06T01:09:24.748Z,79.75
2023-03-06T01:11:54.134Z,79.72
2023-03-06T01:14:21.256Z,79.50
2023-03-06T01:16:48.220Z,79.63
2023-03-06T01:19:17.900Z,80.04
2023-03-06T01:21:45.317Z,80.13
2023-03-06T01:24:12.175Z,80.30
2023-03-06T01:26:39.017Z,80.45
2023-03-06T01:29:06.463Z,80.66
2023-03-06T01:31:33.631Z,80.48
2023-03-06T01:34:00.555Z,80.28
2023-03-06T01:36:27.331Z,80.45
2023-03-06T01:38:54.164Z,80.30
2023-03-06T01:41:21.559Z,80.31
2023-03-06T01:43:48.861Z,80.54
2023-03-06T01:46:43.696Z,80.14
2023-03-06T01:49:26.311Z,80.13
2023-03-06T01:51:58.662Z,80.30
2023-03-06T01:54:34.237Z,80.33
2023-03-06T01:57:05.333Z,80.19
2023-03-06T01:59:34.840Z,80.07
2023-03-06T02:02:03.586Z,80.20
2023-03-06T02:04:31.785Z,79.96
2023-03-06T02:07:01.219Z,79.91
2023-03-06T02:09:32.852Z,79.84
2023-03-06T02:12:01.678Z,80.12
2023-03-06T02:14:30.071Z,80.31
2023-03-06T02:16:56.996Z,80.87
2023-03-06T02:19:36.918Z,81.23
2023-03-06T02:22:03.907Z,80.98
2023-03-06T02:24:51.596Z,80.69
2023-03-06T02:27:19.585Z,80.60
2023-03-06T02:29:46.725Z,80.64
2023-03-06T02:32:13.717Z,80.63
2023-03-06T02:34:40.429Z,80.65
2023-03-06T02:37:09.624Z,80.89
2023-03-06T02:39:42.275Z,80.81
2023-03-06T02:42:09.529Z,81.02
2023-03-06T02:44:36.774Z,81.20
2023-03-06T02:47:04.982Z,81.47
2023-03-06T02:49:31.771Z,81.66
2023-03-06T02:51:58.552Z,81.57
2023-03-06T02:54:25.374Z,81.76
2023-03-06T02:56:52.178Z,82.66
2023-03-06T02:59:18.946Z,82.47
2023-03-06T03:01:47.828Z,81.98
2023-03-06T03:04:14.734Z,82.01
2023-03-06T03:06:41.608Z,81.84
2023-03-06T03:09:08.836Z,81.63
2023-03-06T03:11:35.718Z,81.49
2023-03-06T03:14:02.545Z,81.55
2023-03-06T03:16:30.165Z,81.50
2023-03-06T03:18:58.628Z,81.62
2023-03-06T03:21:26.232Z,81.88
2023-03-06T03:23:54.722Z,82.01
2023-03-06T03:26:22.655Z,82.11
2023-03-06T03:29:05.196Z,81.93
2023-03-06T03:31:32.604Z,81.90
2023-03-06T03:34:00.794Z,82.19
2023-03-06T03:36:29.740Z,81.81
2023-03-06T03:38:57.761Z,81.60
2023-03-06T03:41:24.824Z,81.48
2023-03-06T03:43:51.918Z,81.39
2023-03-06T03:46:21.512Z,81.56
2023-03-06T03:48:49.716Z,81.82
2023-03-06T03:51:17.098Z,81.85
2023-03-06T03:53:49.363Z,81.88
2023-03-06T03:56:19.989Z,81.68
2023-03-06T03:58:54.959Z,81.63
2023-03-06T04:01:22.851Z,81.41
2023-03-06T04:03:49.866Z,81.30
2023-03-06T04:06:17.675Z,81.55
2023-03-06T04:08:45.023Z,81.82
2023-03-06T04:11:11.930Z,81.95
2023-03-06T04:13:39.483Z,82.10
2023-03-06T04:16:06.877Z,81.92
2023-03-06T04:18:35.885Z,81.68
2023-03-06T04:21:05.228Z,81.63
2023-03-06T04:23:32.921Z,81.59
2023-03-06T04:26:00.240Z,81.37
2023-03-06T04:28:27.700Z,81.43
2023-03-06T04:30:54.525Z,81.66
2023-03-06T04:33:21.493Z,81.66
2023-03-06T04:35:48.796Z,81.71
2023-03-06T04:38:21.322Z,81.81
2023-03-06T04:40:49.824Z,81.77
2023-03-06T04:43:17.034Z,81.64
2023-03-06T04:45:43.961Z,81.75
2023-03-06T04:48:14.830Z,81.84
2023-03-06T04:50:42.110Z,81.84
2023-03-06T04:53:09.622Z,81.78
2023-03-06T04:55:36.711Z,81.72
2023-03-06T04:58:03.693Z,81.48
2023-03-06T05:00:31.721Z,81.27
2023-03-06T05:03:00.743Z,81.23
2023-03-06T05:05:28.370Z,81.28
2023-03-06T05:07:55.690Z,81.23
2023-03-06T05:10:22.691Z,81.29
2023-03-06T05:12:49.561Z,81.30
2023-03-06T05:15:16.902Z,80.98
2023-03-06T05:17:44.395Z,81.53
2023-03-06T05:20:12.224Z,82.58
2023-03-06T05:22:39.299Z,83.13
2023-03-06T05:25:06.939Z,83.23
2023-03-06T05:27:34.177Z,83.55
2023-03-06T05:30:01.243Z,83.11
2023-03-06T05:32:28.662Z,82.97
2023-03-06T05:34:57.028Z,83.32
2023-03-06T05:37:24.497Z,82.78
2023-03-06T05:39:52.144Z,82.87
2023-03-06T05:42:19.629Z,82.44
2023-03-06T05:44:46.746Z,82.20
2023-03-06T05:47:15.222Z,82.28
2023-03-06T05:49:42.241Z,81.44
2023-03-06T05:52:11.014Z,81.85
2023-03-06T05:54:37.912Z,82.75
2023-03-06T05:57:05.869Z,83.04
2023-03-06T05:59:33.367Z,82.31
2023-03-06T06:02:01.350Z,81.36
2023-03-06T06:04:28.795Z,79.85
2023-03-06T06:06:58.063Z,78.66
2023-03-06T06:09:26.328Z,78.28
2023-03-06T06:11:59.326Z,77.13
2023-03-06T06:14:26.261Z,75.77
2023-03-06T06:16:53.513Z,74.70
2023-03-06T06:19:21.103Z,73.59
2023-03-06T06:21:50.524Z,72.31
2023-03-06T06:24:19.599Z,71.82
2023-03-06T06:26:47.056Z,70.39
2023-03-06T06:29:14.077Z,68.45
2023-03-06T06:31:41.567Z,67.23
2023-03-06T06:34:11.165Z,65.53
2023-03-06T06:36:39.007Z,64.50
2023-03-06T06:39:07.412Z,64.89
2023-03-06T06:41:54.903Z,64.60
2023-03-06T06:44:22.199Z,64.09
2023-03-06T06:47:21.325Z,63.94
2023-03-06T06:49:37.270Z,62.31
2023-03-06T06:52:05.525Z,61.45
2023-03-06T06:54:36.296Z,60.51
2023-03-06T06:57:03.140Z,61.25
2023-03-06T06:59:30.015Z,61.51
2023-03-06T07:01:56.830Z,62.21
2023-03-06T07:04:23.652Z,63.05
2023-03-06T07:06:50.467Z,63.72
2023-03-06T07:09:17.317Z,64.25
2023-03-06T07:11:44.148Z,64.15
2023-03-06T07:14:10.933Z,64.25
2023-03-06T07:16:37.874Z,64.34
2023-03-06T07:19:04.818Z,64.88
2023-03-06T07:21:31.889Z,64.53
2023-03-06T07:23:59.133Z,63.77
2023-03-06T07:26:27.672Z,64.26
2023-03-06T07:28:55.062Z,64.43
2023-03-06T07:31:25.156Z,64.48
2023-03-06T07:33:53.347Z,64.80
2023-03-06T07:36:22.001Z,64.47
2023-03-06T07:38:48.852Z,64.59
2023-03-06T07:41:16.587Z,64.50
2023-03-06T07:43:44.743Z,64.05
2023-03-06T07:46:14.295Z,64.26
2023-03-06T07:48:41.579Z,63.91
2023-03-06T07:51:15.070Z,63.84
2023-03-06T07:53:42.252Z,63.21
2023-03-06T07:56:11.115Z,63.87
2023-03-06T07:58:42.911Z,64.09
2023-03-06T08:01:13.200Z,63.85
2023-03-06T08:03:40.107Z,63.55
2023-03-06T08:06:19.414Z,63.98
2023-03-06T08:08:47.802Z,63.24
2023-03-06T08:11:16.244Z,63.11
2023-03-06T08:13:43.676Z,63.09
2023-03-06T08:16:11.111Z,63.14
2023-03-06T08:18:41.292Z,62.15
2023-03-06T08:21:13.604Z,62.22
2023-03-06T08:23:41.245Z,60.44
2023-03-06T08:26:14.089Z,60.43
2023-03-06T08:28:41.336Z,60.73
2023-03-06T08:31:15.752Z,60.52
2023-03-06T08:33:43.016Z,58.97
2023-03-06T08:36:10.490Z,59.33
2023-03-06T08:38:37.209Z,58.04
2023-03-06T08:41:04.192Z,58.21
2023-03-06T08:43:31.100Z,58.00
2023-03-06T08:45:58.813Z,56.82
2023-03-06T08:48:25.712Z,56.91
2023-03-06T08:50:53.123Z,57.56
2023-03-06T08:53:21.533Z,56.08
2023-03-06T08:55:48.590Z,55.41
2023-03-06T08:58:15.350Z,54.79
2023-03-06T09:00:42.334Z,54.89
2023-03-06T09:03:09.130Z,54.89
2023-03-06T09:05:36.486Z,52.64
2023-03-06T09:08:03.398Z,53.04
2023-03-06T09:10:30.202Z,53.32
2023-03-06T09:12:57.009Z,53.43
2023-03-06T09:15:24.952Z,52.88
2023-03-06T09:17:52.435Z,52.40
2023-03-06T09:20:19.374Z,52.53
2023-03-06T09:22:46.278Z,52.56
2023-03-06T09:25:14.427Z,51.59
2023-03-06T09:27:41.479Z,52.03
2023-03-06T09:30:09.330Z,51.77
2023-03-06T09:32:36.109Z,50.99
2023-03-06T09:35:03.266Z,50.86
2023-03-06T09:37:30.495Z,50.92
2023-03-06T09:39:57.852Z,51.31
2023-03-06T09:42:25.285Z,51.17
2023-03-06T09:45:00.581Z,49.81
2023-03-06T09:47:42.544Z,49.68
2023-03-06T09:50:24.344Z,49.25
2023-03-06T09:53:32.494Z,48.76
2023-03-06T09:56:03.934Z,48.77
2023-03-06T09:58:37.671Z,48.92
2023-03-06T10:01:17.544Z,46.80
2023-03-06T10:04:11.489Z,47.08
2023-03-06T10:06:50.356Z,48.12
2023-03-06T10:09:38.278Z,47.28
2023-03-06T10:12:16.437Z,46.84
2023-03-06T10:14:49.013Z,47.35
2023-03-06T10:17:19.312Z,46.28
2023-03-06T10:19:47.719Z,44.66
2023-03-06T10:22:26.675Z,43.55
2023-03-06T10:25:26.193Z,44.32
2023-03-06T10:28:05.788Z,44.48
2023-03-06T10:30:41.643Z,44.50
2023-03-06T10:33:46.002Z,44.35
2023-03-06T10:36:17.791Z,42.31
2023-03-06T10:38:46.207Z,42.95
2023-03-06T10:41:12.900Z,41.17
2023-03-06T10:43:44.899Z,42.40
2023-03-06T10:46:26.037Z,39.59
2023-03-06T10:48:59.032Z,39.54
2023-03-06T10:51:27.409Z,39.27
2023-03-06T10:53:58.594Z,38.56
2023-03-06T10:56:37.599Z,40.43
2023-03-06T10:59:14.464Z,40.17
2023-03-06T11:01:43.796Z,39.38
2023-03-06T11:04:23.078Z,38.93
2023-03-06T11:07:19.456Z,38.56
2023-03-06T11:10:19.423Z,39.85
2023-03-06T11:13:07.759Z,37.75
2023-03-06T11:15:34.934Z,35.92
2023-03-06T11:18:04.793Z,37.03
2023-03-06T11:20:50.085Z,35.33
2023-03-06T11:23:20.963Z,35.00
2023-03-06T11:25:54.011Z,33.31
2023-03-06T11:28:59.194Z,31.91
2023-03-06T11:31:31.760Z,32.35
2023-03-06T11:34:11.988Z,29.91
2023-03-06T11:36:42.144Z,28.71
2023-03-06T11:39:48.086Z,28.48
2023-03-06T11:42:48.925Z,28.14
2023-03-06T11:45:37.245Z,28.41
2023-03-06T11:48:17.597Z,27.35
2023-03-06T11:50:46.052Z,26.72
2023-03-06T11:53:16.680Z,26.17
2023-03-06T11:56:14.462Z,24.72
2023-03-06T11:59:22.705Z,23.37
2023-03-06T12:02:19.973Z,24.49
2023-03-06T12:05:09.289Z,25.04
2023-03-06T12:07:55.898Z,24.75
2023-03-06T12:10:51.532Z,25.21
2023-03-06T12:13:33.326Z,24.04
2023-03-06T12:16:26.961Z,23.85
2023-03-06T12:19:09.693Z,22.27
2023-03-06T12:22:17.860Z,21.32
2023-03-06T12:25:17.430Z,21.40
2023-03-06T12:28:05.379Z,20.48
2023-03-06T12:30:44.480Z,19.60
2023-03-06T12:33:33.972Z,22.14
2023-03-06T12:36:16.290Z,22.24
2023-03-06T12:39:16.563Z,21.37
2023-03-06T12:41:50.588Z,20.99
2023-03-06T12:44:29.194Z,20.43
2023-03-06T12:47:05.063Z,19.52
2023-03-06T12:49:38.635Z,19.54
2023-03-06T12:52:07.819Z,19.99
2023-03-06T12:54:40.927Z,20.00
2023-03-06T12:57:09.438Z,20.70
2023-03-06T12:59:39.076Z,21.13
2023-03-06T13:02:08.528Z,20.12
2023-03-06T13:04:47.224Z,20.48
2023-03-06T13:07:36.690Z,20.31
2023-03-06T13:10:14.560Z,20.29
2023-03-06T13:12:49.992Z,20.24
2023-03-06T13:15:35.573Z,20.87
2023-03-06T13:18:23.069Z,20.13
2023-03-06T13:20:50.869Z,19.80
2023-03-06T13:23:29.796Z,20.07
2023-03-06T13:25:59.840Z,18.62
2023-03-06T13:28:49.411Z,19.13
2023-03-06T13:31:29.507Z,20.35
2023-03-06T13:34:21.030Z,20.04
2023-03-06T13:36:47.882Z,19.79
2023-03-06T13:39:15.922Z,20.77
2023-03-06T13:41:42.766Z,20.89
2023-03-06T13:44:24.715Z,21.22
2023-03-06T13:46:59.600Z,21.40
2023-03-06T13:49:27.251Z,21.10
2023-03-06T13:51:54.159Z,22.15
2023-03-06T13:54:20.950Z,22.73
2023-03-06T13:56:59.456Z,22.79
2023-03-06T14:00:08.344Z,23.07
2023-03-06T14:03:09.085Z,22.99
2023-03-06T14:05:43.918Z,22.73
2023-03-06T14:08:32.423Z,23.01
2023-03-06T14:11:19.589Z,23.00
2023-03-06T14:13:50.693Z,22.52
2023-03-06T14:16:21.343Z,23.04
2023-03-06T14:18:50.647Z,23.09
2023-03-06T14:21:31.066Z,22.79
2023-03-06T14:24:01.086Z,22.93
2023-03-06T14:26:32.803Z,22.69
2023-03-06T14:29:02.398Z,22.52
2023-03-06T14:31:34.615Z,23.14
2023-03-06T14:34:06.941Z,23.40
2023-03-06T14:36:45.933Z,23.97
2023-03-06T14:39:27.157Z,24.17
2023-03-06T14:42:19.110Z,24.20
2023-03-06T14:44:47.591Z,24.43
2023-03-06T14:47:27.941Z,24.92
2023-03-06T14:50:21.718Z,25.41
2023-03-06T14:52:54.312Z,25.99
2023-03-06T14:55:24.411Z,26.70
2023-03-06T14:57:58.227Z,26.97
2023-03-06T15:00:32.433Z,27.52
2023-03-06T15:03:00.115Z,28.13
2023-03-06T15:05:29.713Z,28.66
2023-03-06T15:08:03.467Z,29.52
2023-03-06T15:10:32.805Z,29.88
2023-03-06T15:13:18.650Z,29.44
2023-03-06T15:16:05.410Z,29.78
2023-03-06T15:18:35.420Z,30.29
2023-03-06T15:21:21.668Z,30.75
2023-03-06T15:23:52.643Z,30.93
2023-03-06T15:26:22.092Z,30.80
2023-03-06T15:29:09.593Z,30.90
2023-03-06T15:31:38.930Z,31.71
2023-03-06T15:34:11.476Z,32.23
2023-03-06T15:36:58.717Z,33.10
2023-03-06T15:39:40.065Z,32.91
2023-03-06T15:42:18.337Z,33.10
2023-03-06T15:44:51.312Z,33.25
2023-03-06T15:47:18.235Z,33.24
2023-03-06T15:49:45.767Z,32.96
2023-03-06T15:52:12.574Z,32.83
2023-03-06T15:54:39.394Z,32.83
2023-03-06T15:57:12.245Z,33.28
2023-03-06T15:59:44.699Z,32.93
2023-03-06T16:02:19.091Z,33.06
2023-03-06T16:04:46.797Z,32.82
2023-03-06T16:07:14.288Z,33.35
2023-03-06T16:09:42.016Z,33.92
2023-03-06T16:12:30.057Z,34.72
2023-03-06T16:14:58.259Z,35.40
2023-03-06T16:17:25.069Z,36.18
2023-03-06T16:19:51.878Z,35.85
2023-03-06T16:22:18.857Z,35.67
2023-03-06T16:24:45.615Z,36.35
2023-03-06T16:27:18.737Z,37.13
2023-03-06T16:29:45.608Z,37.33
2023-03-06T16:32:12.627Z,37.16
2023-03-06T16:34:39.450Z,37.68
2023-03-06T16:37:06.453Z,38.01
2023-03-06T16:39:33.583Z,37.75
2023-03-06T16:42:00.391Z,38.52
2023-03-06T16:44:27.244Z,39.41
2023-03-06T16:46:54.092Z,39.55
2023-03-06T16:49:23.735Z,39.52
2023-03-06T16:51:51.466Z,39.94
2023-03-06T16:54:18.416Z,40.42
2023-03-06T16:56:45.643Z,40.01
2023-03-06T16:59:12.744Z,40.91
2023-03-06T17:01:42.669Z,41.63
2023-03-06T17:04:09.932Z,41.93
2023-03-06T17:06:36.906Z,42.56
2023-03-06T17:09:04.653Z,43.01
2023-03-06T17:11:31.663Z,43.58
2023-03-06T17:13:58.577Z,43.61
2023-03-06T17:16:25.724Z,44.81
2023-03-06T17:18:52.731Z,44.69
2023-03-06T17:21:19.623Z,45.16
2023-03-06T17:23:46.780Z,44.90
2023-03-06T17:26:15.976Z,46.06
2023-03-06T17:28:43.417Z,46.30
2023-03-06T17:31:21.807Z,46.33
2023-03-06T17:33:48.697Z,46.79
2023-03-06T17:36:16.669Z,47.58
2023-03-06T17:38:43.893Z,47.57
2023-03-06T17:41:11.791Z,48.16
2023-03-06T17:43:39.382Z,48.28
2023-03-06T17:46:12.228Z,48.35
2023-03-06T17:48:39.545Z,49.83
2023-03-06T17:51:07.543Z,50.56
2023-03-06T17:53:34.538Z,51.02
2023-03-06T17:56:04.520Z,51.93
2023-03-06T17:58:31.865Z,51.63
2023-03-06T18:00:59.117Z,51.47
2023-03-06T18:03:26.081Z,52.33
2023-03-06T18:06:00.706Z,52.50
2023-03-06T18:08:27.510Z,53.88
2023-03-06T18:11:00.116Z,53.61
2023-03-06T18:13:26.949Z,54.56
2023-03-06T18:15:53.929Z,54.83
2023-03-06T18:18:20.749Z,54.05
2023-03-06T18:20:47.648Z,55.29
2023-03-06T18:23:14.479Z,54.68
2023-03-06T18:25:41.567Z,54.62
2023-03-06T18:28:08.495Z,54.25
2023-03-06T18:30:37.406Z,54.36
2023-03-06T18:33:04.757Z,55.20
2023-03-06T18:35:31.655Z,55.13
2023-03-06T18:37:58.414Z,55.11
2023-03-06T18:40:25.172Z,56.20
2023-03-06T18:42:53.177Z,56.56
2023-03-06T18:45:20.450Z,56.70
2023-03-06T18:47:47.212Z,56.61
2023-03-06T18:50:17.566Z,56.36
2023-03-06T18:52:44.790Z,55.90
2023-03-06T18:55:13.606Z,55.71
2023-03-06T18:57:41.068Z,55.22
2023-03-06T19:00:08.788Z,54.80
2023-03-06T19:02:35.665Z,54.72
2023-03-06T19:05:02.712Z,54.52
2023-03-06T19:07:29.600Z,54.59
2023-03-06T19:09:56.382Z,54.66
2023-03-06T19:12:23.620Z,53.77
2023-03-06T19:14:50.595Z,54.06
2023-03-06T19:17:17.486Z,53.56
2023-03-06T19:19:44.398Z,53.59
2023-03-06T19:22:11.193Z,53.82
2023-03-06T19:24:38.177Z,52.97
2023-03-06T19:27:05.215Z,53.17
2023-03-06T19:29:32.576Z,52.91
2023-03-06T19:31:59.530Z,52.63
2023-03-06T19:34:26.512Z,52.76
2023-03-06T19:36:53.337Z,52.30
2023-03-06T19:39:20.386Z,52.14
2023-03-06T19:41:48.028Z,52.07
2023-03-06T19:44:16.307Z,53.03
2023-03-06T19:46:43.656Z,52.74
2023-03-06T19:49:16.922Z,52.56
2023-03-06T19:51:44.395Z,52.51
2023-03-06T19:54:12.753Z,52.61
2023-03-06T19:56:40.087Z,54.20
2023-03-06T19:59:07.278Z,53.93
2023-03-06T20:01:34.539Z,54.13
2023-03-06T20:04:01.399Z,52.62
2023-03-06T20:06:31.296Z,53.86
2023-03-06T20:08:58.495Z,53.86
2023-03-06T20:11:29.886Z,55.20
2023-03-06T20:13:58.647Z,56.11
2023-03-06T20:16:28.073Z,55.50
2023-03-06T20:18:58.137Z,56.72
2023-03-06T20:21:26.222Z,55.28
2023-03-06T20:23:54.494Z,55.83
2023-03-06T20:26:21.548Z,55.38
2023-03-06T20:28:48.889Z,57.13
2023-03-06T20:31:19.232Z,57.13
2023-03-06T20:33:47.809Z,58.29
2023-03-06T20:36:17.206Z,58.43
2023-03-06T20:38:44.638Z,58.29
2023-03-06T20:41:15.644Z,58.54
2023-03-06T20:43:42.968Z,59.38
2023-03-06T20:46:11.747Z,60.12
2023-03-06T20:48:38.981Z,60.03
2023-03-06T20:51:28.758Z,59.25
2023-03-06T20:53:56.483Z,57.96
2023-03-06T20:56:25.805Z,59.33
2023-03-06T20:58:53.391Z,58.08
2023-03-06T21:01:28.907Z,58.30
2023-03-06T21:03:59.474Z,58.80
2023-03-06T21:06:28.300Z,60.18
2023-03-06T21:08:56.723Z,60.72
2023-03-06T21:11:24.200Z,61.70
2023-03-06T21:13:52.673Z,61.59
2023-03-06T21:16:21.123Z,61.82
2023-03-06T21:18:48.370Z,61.00
2023-03-06T21:21:21.457Z,60.89
2023-03-06T21:23:49.207Z,59.41
2023-03-06T21:26:21.622Z,59.42
2023-03-06T21:28:48.825Z,59.40
2023-03-06T21:31:17.512Z,59.32
2023-03-06T21:33:45.262Z,60.17
2023-03-06T21:36:12.018Z,60.09
2023-03-06T21:38:39.148Z,59.67
2023-03-06T21:41:13.752Z,59.47
2023-03-06T21:43:41.329Z,59.71
2023-03-06T21:46:08.373Z,60.41
2023-03-06T21:48:35.434Z,61.15
2023-03-06T21:51:13.925Z,60.92
2023-03-06T21:53:44.857Z,62.07
2023-03-06T21:56:15.003Z,62.22
2023-03-06T21:58:42.347Z,62.05
2023-03-06T22:01:15.845Z,62.15
2023-03-06T22:03:42.795Z,61.87
2023-03-06T22:06:11.874Z,62.02
2023-03-06T22:08:39.641Z,62.08
2023-03-06T22:11:11.674Z,62.12
2023-03-06T22:13:38.689Z,62.40
2023-03-06T22:16:06.376Z,62.63
2023-03-06T22:18:34.188Z,62.56
2023-03-06T22:21:05.519Z,63.02
2023-03-06T22:23:32.295Z,62.73
2023-03-06T22:26:04.191Z,62.89
2023-03-06T22:28:31.517Z,62.77
2023-03-06T22:31:11.610Z,62.72
2023-03-06T22:33:38.454Z,62.24
2023-03-06T22:36:08.157Z,62.39
2023-03-06T22:38:37.156Z,62.28
2023-03-06T22:41:05.018Z,62.03
2023-03-06T22:43:32.334Z,62.69
2023-03-06T22:46:18.340Z,62.79
2023-03-06T22:48:45.345Z,62.64
2023-03-06T22:51:15.168Z,62.96
2023-03-06T22:53:42.655Z,63.02
2023-03-06T22:56:12.017Z,63.14
2023-03-06T22:58:40.320Z,63.82
2023-03-06T23:01:09.834Z,63.95
2023-03-06T23:03:37.855Z,63.97
2023-03-06T23:06:10.380Z,63.92
2023-03-06T23:08:37.657Z,63.87
2023-03-06T23:11:10.016Z,64.25
2023-03-06T23:13:57.292Z,64.48
2023-03-06T23:16:42.606Z,64.34
2023-03-06T23:19:27.915Z,63.65
2023-03-06T23:22:14.414Z,64.49
2023-03-06T23:25:00.286Z,64.71
2023-03-06T23:27:27.476Z,64.49
2023-03-06T23:29:59.037Z,64.53
2023-03-06T23:32:26.182Z,64.70
2023-03-06T23:34:53.036Z,65.74
2023-03-06T23:37:19.916Z,65.61
2023-03-06T23:39:47.000Z,65.92
2023-03-06T23:42:13.811Z,65.66
2023-03-06T23:44:40.612Z,67.06
2023-03-06T23:47:07.435Z,66.93
2023-03-06T23:49:34.358Z,66.33
2023-03-06T23:52:01.154Z,66.11
2023-03-06T23:54:27.937Z,65.82
2023-03-06T23:56:54.805Z,65.34
2023-03-06T23:59:21.593Z,65.78
